sensor_id;sensor_type;location;lat;lon;timestamp;P1;durP1;ratioP1;P2;durP2;ratioP2
74042;SDS011;62384;53.600;10.040;2023-05-28T00:00:59;10.15;;;3.70;;
74042;SDS011;62384;53.600;10.040;2023-05-28T00:03:26;10.65;;;4.13;;
74042;SDS011;62384;53.600;10.040;2023-05-28T00:05:51;8.73;;;3.97;;
74042;SDS011;62384;53.600;10.040;2023-05-28T00:08:16;10.45;;;5.10;;
74042;SDS011;62384;53.600;10.040;2023-05-28T00:10:42;10.57;;;4.25;;
74042;SDS011;62384;53.600;10.040;2023-05-28T00:13:08;13.10;;;4.50;;
74042;SDS011;62384;53.600;10.040;2023-05-28T00:15:34;15.40;;;5.22;;
74042;SDS011;62384;53.600;10.040;2023-05-28T00:18:00;20.17;;;4.82;;
74042;SDS011;62384;53.600;10.040;2023-05-28T00:20:26;11.60;;;4.65;;
74042;SDS011;62384;53.600;10.040;2023-05-28T00:22:51;16.65;;;4.57;;
74042;SDS011;62384;53.600;10.040;2023-05-28T00:25:17;17.52;;;4.90;;
74042;SDS011;62384;53.600;10.040;2023-05-28T00:27:42;13.25;;;5.05;;
74042;SDS011;62384;53.600;10.040;2023-05-28T00:30:07;13.18;;;4.25;;
74042;SDS011;62384;53.600;10.040;2023-05-28T00:32:32;15.30;;;4.38;;
74042;SDS011;62384;53.600;10.040;2023-05-28T00:34:58;13.85;;;4.88;;
74042;SDS011;62384;53.600;10.040;2023-05-28T00:37:23;14.40;;;5.10;;
74042;SDS011;62384;53.600;10.040;2023-05-28T00:39:48;12.63;;;4.88;;
74042;SDS011;62384;53.600;10.040;2023-05-28T00:42:14;9.45;;;4.97;;
74042;SDS011;62384;53.600;10.040;2023-05-28T00:44:39;12.30;;;4.57;;
74042;SDS011;62384;53.600;10.040;2023-05-28T00:47:06;13.82;;;5.22;;
74042;SDS011;62384;53.600;10.040;2023-05-28T00:49:31;11.43;;;4.35;;
74042;SDS011;62384;53.600;10.040;2023-05-28T00:51:59;13.13;;;4.50;;
74042;SDS011;62384;53.600;10.040;2023-05-28T00:54:27;10.32;;;4.10;;
74042;SDS011;62384;53.600;10.040;2023-05-28T00:56:54;10.88;;;4.68;;
74042;SDS011;62384;53.600;10.040;2023-05-28T00:59:22;10.80;;;4.32;;
74042;SDS011;62384;53.600;10.040;2023-05-28T01:01:49;13.68;;;4.95;;
74042;SDS011;62384;53.600;10.040;2023-05-28T01:04:15;11.10;;;4.65;;
74042;SDS011;62384;53.600;10.040;2023-05-28T01:06:40;14.25;;;5.63;;
74042;SDS011;62384;53.600;10.040;2023-05-28T01:09:07;12.95;;;4.97;;
74042;SDS011;62384;53.600;10.040;2023-05-28T01:11:32;11.40;;;5.03;;
74042;SDS011;62384;53.600;10.040;2023-05-28T01:14:00;12.18;;;4.45;;
74042;SDS011;62384;53.600;10.040;2023-05-28T01:16:26;10.65;;;5.30;;
74042;SDS011;62384;53.600;10.040;2023-05-28T01:18:52;10.52;;;4.90;;
74042;SDS011;62384;53.600;10.040;2023-05-28T01:21:20;14.65;;;6.00;;
74042;SDS011;62384;53.600;10.040;2023-05-28T01:23:47;14.57;;;5.30;;
74042;SDS011;62384;53.600;10.040;2023-05-28T01:26:15;12.02;;;5.30;;
74042;SDS011;62384;53.600;10.040;2023-05-28T01:28:47;17.67;;;5.32;;
74042;SDS011;62384;53.600;10.040;2023-05-28T01:31:14;12.07;;;4.30;;
74042;SDS011;62384;53.600;10.040;2023-05-28T01:33:40;15.82;;;5.43;;
74042;SDS011;62384;53.600;10.040;2023-05-28T01:36:19;9.98;;;4.68;;
74042;SDS011;62384;53.600;10.040;2023-05-28T01:38:51;15.77;;;5.25;;
74042;SDS011;62384;53.600;10.040;2023-05-28T01:41:18;15.00;;;4.90;;
74042;SDS011;62384;53.600;10.040;2023-05-28T01:43:44;14.45;;;5.22;;
74042;SDS011;62384;53.600;10.040;2023-05-28T01:46:11;16.73;;;5.18;;
74042;SDS011;62384;53.600;10.040;2023-05-28T01:48:36;12.25;;;5.00;;
74042;SDS011;62384;53.600;10.040;2023-05-28T01:51:02;7.93;;;4.22;;
74042;SDS011;62384;53.600;10.040;2023-05-28T01:53:28;18.02;;;5.60;;
74042;SDS011;62384;53.600;10.040;2023-05-28T01:55:53;14.60;;;4.50;;
74042;SDS011;62384;53.600;10.040;2023-05-28T01:58:21;14.95;;;5.72;;
74042;SDS011;62384;53.600;10.040;2023-05-28T02:00:49;12.05;;;5.15;;
74042;SDS011;62384;53.600;10.040;2023-05-28T02:03:22;11.95;;;5.00;;
74042;SDS011;62384;53.600;10.040;2023-05-28T02:05:48;15.25;;;5.65;;
74042;SDS011;62384;53.600;10.040;2023-05-28T02:08:13;11.05;;;4.90;;
74042;SDS011;62384;53.600;10.040;2023-05-28T02:10:38;11.23;;;5.00;;
74042;SDS011;62384;53.600;10.040;2023-05-28T02:13:04;10.07;;;5.35;;
74042;SDS011;62384;53.600;10.040;2023-05-28T02:15:29;11.82;;;5.07;;
74042;SDS011;62384;53.600;10.040;2023-05-28T02:17:55;13.98;;;4.95;;
74042;SDS011;62384;53.600;10.040;2023-05-28T02:20:21;13.35;;;5.15;;
74042;SDS011;62384;53.600;10.040;2023-05-28T02:22:46;15.80;;;4.88;;
74042;SDS011;62384;53.600;10.040;2023-05-28T02:25:11;11.77;;;4.93;;
74042;SDS011;62384;53.600;10.040;2023-05-28T02:27:37;12.00;;;5.13;;
74042;SDS011;62384;53.600;10.040;2023-05-28T02:30:03;12.27;;;5.07;;
74042;SDS011;62384;53.600;10.040;2023-05-28T02:32:28;10.38;;;4.25;;
74042;SDS011;62384;53.600;10.040;2023-05-28T02:34:54;12.70;;;5.00;;
74042;SDS011;62384;53.600;10.040;2023-05-28T02:37:19;11.30;;;5.85;;
74042;SDS011;62384;53.600;10.040;2023-05-28T02:39:48;11.57;;;4.80;;
74042;SDS011;62384;53.600;10.040;2023-05-28T02:42:14;13.30;;;4.85;;
74042;SDS011;62384;53.600;10.040;2023-05-28T02:44:39;12.35;;;4.50;;
74042;SDS011;62384;53.600;10.040;2023-05-28T02:47:04;13.50;;;4.82;;
74042;SDS011;62384;53.600;10.040;2023-05-28T02:49:30;12.82;;;4.43;;
74042;SDS011;62384;53.600;10.040;2023-05-28T02:51:55;13.13;;;4.75;;
74042;SDS011;62384;53.600;10.040;2023-05-28T02:54:20;11.38;;;5.10;;
74042;SDS011;62384;53.600;10.040;2023-05-28T02:56:46;12.90;;;5.07;;
74042;SDS011;62384;53.600;10.040;2023-05-28T02:59:11;12.30;;;5.43;;
74042;SDS011;62384;53.600;10.040;2023-05-28T03:01:36;11.68;;;5.25;;
74042;SDS011;62384;53.600;10.040;2023-05-28T03:04:01;13.07;;;4.88;;
74042;SDS011;62384;53.600;10.040;2023-05-28T03:06:27;12.45;;;5.10;;
74042;SDS011;62384;53.600;10.040;2023-05-28T03:08:52;10.05;;;4.50;;
74042;SDS011;62384;53.600;10.040;2023-05-28T03:11:17;13.63;;;4.95;;
74042;SDS011;62384;53.600;10.040;2023-05-28T03:13:42;11.48;;;5.22;;
74042;SDS011;62384;53.600;10.040;2023-05-28T03:16:08;12.13;;;5.47;;
74042;SDS011;62384;53.600;10.040;2023-05-28T03:18:33;13.90;;;5.20;;
74042;SDS011;62384;53.600;10.040;2023-05-28T03:20:59;13.10;;;5.72;;
74042;SDS011;62384;53.600;10.040;2023-05-28T03:23:25;16.65;;;5.20;;
74042;SDS011;62384;53.600;10.040;2023-05-28T03:25:50;10.93;;;4.72;;
74042;SDS011;62384;53.600;10.040;2023-05-28T03:28:15;13.48;;;4.72;;
74042;SDS011;62384;53.600;10.040;2023-05-28T03:30:41;9.13;;;4.55;;
74042;SDS011;62384;53.600;10.040;2023-05-28T03:33:07;12.43;;;4.70;;
74042;SDS011;62384;53.600;10.040;2023-05-28T03:35:32;10.73;;;4.00;;
74042;SDS011;62384;53.600;10.040;2023-05-28T03:37:57;15.48;;;4.30;;
74042;SDS011;62384;53.600;10.040;2023-05-28T03:40:22;11.68;;;4.50;;
74042;SDS011;62384;53.600;10.040;2023-05-28T03:42:47;13.45;;;4.30;;
74042;SDS011;62384;53.600;10.040;2023-05-28T03:45:13;12.25;;;4.72;;
74042;SDS011;62384;53.600;10.040;2023-05-28T03:47:39;14.20;;;4.07;;
74042;SDS011;62384;53.600;10.040;2023-05-28T03:50:04;16.90;;;5.38;;
74042;SDS011;62384;53.600;10.040;2023-05-28T03:52:30;9.48;;;4.38;;
74042;SDS011;62384;53.600;10.040;2023-05-28T03:54:55;12.82;;;4.43;;
74042;SDS011;62384;53.600;10.040;2023-05-28T03:57:21;11.50;;;4.05;;
74042;SDS011;62384;53.600;10.040;2023-05-28T03:59:46;13.88;;;5.30;;
74042;SDS011;62384;53.600;10.040;2023-05-28T04:02:11;10.95;;;4.22;;
74042;SDS011;62384;53.600;10.040;2023-05-28T04:04:37;16.48;;;5.75;;
74042;SDS011;62384;53.600;10.040;2023-05-28T04:07:02;13.60;;;4.80;;
74042;SDS011;62384;53.600;10.040;2023-05-28T04:09:28;15.65;;;5.35;;
74042;SDS011;62384;53.600;10.040;2023-05-28T04:11:53;11.50;;;4.68;;
74042;SDS011;62384;53.600;10.040;2023-05-28T04:14:19;10.13;;;4.55;;
74042;SDS011;62384;53.600;10.040;2023-05-28T04:16:45;17.50;;;4.80;;
74042;SDS011;62384;53.600;10.040;2023-05-28T04:19:10;11.93;;;4.45;;
74042;SDS011;62384;53.600;10.040;2023-05-28T04:21:35;13.57;;;5.45;;
74042;SDS011;62384;53.600;10.040;2023-05-28T04:24:01;12.00;;;4.70;;
74042;SDS011;62384;53.600;10.040;2023-05-28T04:26:27;13.20;;;4.47;;
74042;SDS011;62384;53.600;10.040;2023-05-28T04:28:52;11.57;;;4.30;;
74042;SDS011;62384;53.600;10.040;2023-05-28T04:31:19;13.88;;;5.05;;
74042;SDS011;62384;53.600;10.040;2023-05-28T04:33:44;14.13;;;4.63;;
74042;SDS011;62384;53.600;10.040;2023-05-28T04:36:11;13.18;;;4.40;;
74042;SDS011;62384;53.600;10.040;2023-05-28T04:38:38;12.07;;;5.13;;
74042;SDS011;62384;53.600;10.040;2023-05-28T04:41:04;13.85;;;5.13;;
74042;SDS011;62384;53.600;10.040;2023-05-28T04:43:30;10.13;;;4.43;;
74042;SDS011;62384;53.600;10.040;2023-05-28T04:45:56;12.43;;;4.50;;
74042;SDS011;62384;53.600;10.040;2023-05-28T04:48:23;9.82;;;4.80;;
74042;SDS011;62384;53.600;10.040;2023-05-28T04:50:50;13.15;;;4.45;;
74042;SDS011;62384;53.600;10.040;2023-05-28T04:53:15;15.05;;;4.80;;
74042;SDS011;62384;53.600;10.040;2023-05-28T04:55:41;12.07;;;4.85;;
74042;SDS011;62384;53.600;10.040;2023-05-28T04:58:07;13.70;;;4.97;;
74042;SDS011;62384;53.600;10.040;2023-05-28T05:00:32;17.80;;;4.93;;
74042;SDS011;62384;53.600;10.040;2023-05-28T05:02:59;15.57;;;4.97;;
74042;SDS011;62384;53.600;10.040;2023-05-28T05:05:25;14.43;;;5.32;;
74042;SDS011;62384;53.600;10.040;2023-05-28T05:07:50;10.48;;;5.10;;
74042;SDS011;62384;53.600;10.040;2023-05-28T05:10:17;11.63;;;5.32;;
74042;SDS011;62384;53.600;10.040;2023-05-28T05:12:42;14.40;;;5.15;;
74042;SDS011;62384;53.600;10.040;2023-05-28T05:15:08;16.05;;;4.95;;
74042;SDS011;62384;53.600;10.040;2023-05-28T05:17:33;13.27;;;5.35;;
74042;SDS011;62384;53.600;10.040;2023-05-28T05:20:01;11.63;;;4.75;;
74042;SDS011;62384;53.600;10.040;2023-05-28T05:22:30;12.18;;;4.68;;
74042;SDS011;62384;53.600;10.040;2023-05-28T05:24:55;9.02;;;4.53;;
74042;SDS011;62384;53.600;10.040;2023-05-28T05:27:21;14.98;;;6.07;;
74042;SDS011;62384;53.600;10.040;2023-05-28T05:29:46;14.80;;;4.53;;
74042;SDS011;62384;53.600;10.040;2023-05-28T05:32:11;12.80;;;4.45;;
74042;SDS011;62384;53.600;10.040;2023-05-28T05:34:36;10.55;;;4.50;;
74042;SDS011;62384;53.600;10.040;2023-05-28T05:37:03;10.98;;;4.40;;
74042;SDS011;62384;53.600;10.040;2023-05-28T05:39:29;13.73;;;3.88;;
74042;SDS011;62384;53.600;10.040;2023-05-28T05:41:54;8.98;;;3.50;;
74042;SDS011;62384;53.600;10.040;2023-05-28T05:44:19;13.93;;;4.53;;
74042;SDS011;62384;53.600;10.040;2023-05-28T05:46:45;15.88;;;4.07;;
74042;SDS011;62384;53.600;10.040;2023-05-28T05:49:10;10.02;;;4.00;;
74042;SDS011;62384;53.600;10.040;2023-05-28T05:51:35;8.60;;;3.65;;
74042;SDS011;62384;53.600;10.040;2023-05-28T05:54:01;13.90;;;3.97;;
74042;SDS011;62384;53.600;10.040;2023-05-28T05:56:28;11.55;;;4.22;;
74042;SDS011;62384;53.600;10.040;2023-05-28T05:58:58;15.05;;;4.63;;
74042;SDS011;62384;53.600;10.040;2023-05-28T06:01:24;15.05;;;4.95;;
74042;SDS011;62384;53.600;10.040;2023-05-28T06:03:50;10.10;;;3.78;;
74042;SDS011;62384;53.600;10.040;2023-05-28T06:06:15;13.43;;;4.55;;
74042;SDS011;62384;53.600;10.040;2023-05-28T06:08:41;11.75;;;3.75;;
74042;SDS011;62384;53.600;10.040;2023-05-28T06:11:06;12.75;;;4.15;;
74042;SDS011;62384;53.600;10.040;2023-05-28T06:13:32;12.00;;;3.80;;
74042;SDS011;62384;53.600;10.040;2023-05-28T06:15:58;14.52;;;4.10;;
74042;SDS011;62384;53.600;10.040;2023-05-28T06:18:24;8.85;;;3.83;;
74042;SDS011;62384;53.600;10.040;2023-05-28T06:20:50;14.40;;;4.05;;
74042;SDS011;62384;53.600;10.040;2023-05-28T06:23:15;14.82;;;4.07;;
74042;SDS011;62384;53.600;10.040;2023-05-28T06:25:41;15.27;;;4.95;;
74042;SDS011;62384;53.600;10.040;2023-05-28T06:28:17;15.35;;;4.05;;
74042;SDS011;62384;53.600;10.040;2023-05-28T06:30:43;7.85;;;3.60;;
74042;SDS011;62384;53.600;10.040;2023-05-28T06:33:08;10.95;;;3.90;;
74042;SDS011;62384;53.600;10.040;2023-05-28T06:35:34;14.20;;;3.83;;
74042;SDS011;62384;53.600;10.040;2023-05-28T06:38:00;12.70;;;4.55;;
74042;SDS011;62384;53.600;10.040;2023-05-28T06:40:25;8.23;;;3.15;;
74042;SDS011;62384;53.600;10.040;2023-05-28T06:42:50;12.57;;;4.30;;
74042;SDS011;62384;53.600;10.040;2023-05-28T06:45:15;11.35;;;3.60;;
74042;SDS011;62384;53.600;10.040;2023-05-28T06:47:42;13.30;;;4.88;;
74042;SDS011;62384;53.600;10.040;2023-05-28T06:50:08;10.10;;;3.22;;
74042;SDS011;62384;53.600;10.040;2023-05-28T06:52:33;9.52;;;3.28;;
74042;SDS011;62384;53.600;10.040;2023-05-28T06:54:58;13.90;;;3.67;;
74042;SDS011;62384;53.600;10.040;2023-05-28T06:57:24;14.43;;;3.67;;
74042;SDS011;62384;53.600;10.040;2023-05-28T06:59:49;7.50;;;3.20;;
74042;SDS011;62384;53.600;10.040;2023-05-28T07:02:15;10.35;;;3.30;;
74042;SDS011;62384;53.600;10.040;2023-05-28T07:04:40;8.63;;;2.85;;
74042;SDS011;62384;53.600;10.040;2023-05-28T07:07:07;13.32;;;3.83;;
74042;SDS011;62384;53.600;10.040;2023-05-28T07:09:32;12.88;;;3.15;;
74042;SDS011;62384;53.600;10.040;2023-05-28T07:11:58;10.88;;;3.15;;
74042;SDS011;62384;53.600;10.040;2023-05-28T07:14:23;11.98;;;3.30;;
74042;SDS011;62384;53.600;10.040;2023-05-28T07:16:48;6.22;;;3.20;;
74042;SDS011;62384;53.600;10.040;2023-05-28T07:19:14;10.25;;;3.15;;
74042;SDS011;62384;53.600;10.040;2023-05-28T07:21:39;10.00;;;2.50;;
74042;SDS011;62384;53.600;10.040;2023-05-28T07:24:04;8.30;;;3.33;;
74042;SDS011;62384;53.600;10.040;2023-05-28T07:26:30;14.68;;;3.92;;
74042;SDS011;62384;53.600;10.040;2023-05-28T07:28:56;14.38;;;3.60;;
74042;SDS011;62384;53.600;10.040;2023-05-28T07:31:21;9.45;;;2.60;;
74042;SDS011;62384;53.600;10.040;2023-05-28T07:33:47;13.88;;;4.85;;
74042;SDS011;62384;53.600;10.040;2023-05-28T07:36:13;8.30;;;3.00;;
74042;SDS011;62384;53.600;10.040;2023-05-28T07:38:38;13.23;;;3.00;;
74042;SDS011;62384;53.600;10.040;2023-05-28T07:41:03;7.20;;;3.15;;
74042;SDS011;62384;53.600;10.040;2023-05-28T07:43:29;8.73;;;3.00;;
74042;SDS011;62384;53.600;10.040;2023-05-28T07:45:54;11.10;;;3.30;;
74042;SDS011;62384;53.600;10.040;2023-05-28T07:48:19;14.13;;;3.40;;
74042;SDS011;62384;53.600;10.040;2023-05-28T07:50:44;10.50;;;3.22;;
74042;SDS011;62384;53.600;10.040;2023-05-28T07:53:10;11.73;;;2.72;;
74042;SDS011;62384;53.600;10.040;2023-05-28T07:55:35;12.63;;;2.67;;
74042;SDS011;62384;53.600;10.040;2023-05-28T07:58:01;7.10;;;2.65;;
74042;SDS011;62384;53.600;10.040;2023-05-28T08:00:26;7.07;;;2.72;;
74042;SDS011;62384;53.600;10.040;2023-05-28T08:02:52;7.35;;;2.45;;
74042;SDS011;62384;53.600;10.040;2023-05-28T08:05:17;8.80;;;2.65;;
74042;SDS011;62384;53.600;10.040;2023-05-28T08:07:43;7.85;;;2.53;;
74042;SDS011;62384;53.600;10.040;2023-05-28T08:10:09;8.52;;;3.05;;
74042;SDS011;62384;53.600;10.040;2023-05-28T08:12:34;6.40;;;2.00;;
74042;SDS011;62384;53.600;10.040;2023-05-28T08:15:00;9.68;;;3.00;;
74042;SDS011;62384;53.600;10.040;2023-05-28T08:17:29;6.13;;;2.30;;
74042;SDS011;62384;53.600;10.040;2023-05-28T08:19:55;8.55;;;2.90;;
74042;SDS011;62384;53.600;10.040;2023-05-28T08:22:20;5.90;;;2.25;;
74042;SDS011;62384;53.600;10.040;2023-05-28T08:24:45;11.40;;;2.50;;
74042;SDS011;62384;53.600;10.040;2023-05-28T08:27:11;8.07;;;2.20;;
74042;SDS011;62384;53.600;10.040;2023-05-28T08:29:36;6.18;;;2.55;;
74042;SDS011;62384;53.600;10.040;2023-05-28T08:32:01;6.57;;;2.15;;
74042;SDS011;62384;53.600;10.040;2023-05-28T08:34:27;5.25;;;2.08;;
74042;SDS011;62384;53.600;10.040;2023-05-28T08:36:52;7.20;;;1.92;;
74042;SDS011;62384;53.600;10.040;2023-05-28T08:39:18;9.27;;;2.63;;
74042;SDS011;62384;53.600;10.040;2023-05-28T08:41:43;11.43;;;2.25;;
74042;SDS011;62384;53.600;10.040;2023-05-28T08:44:09;10.23;;;2.35;;
74042;SDS011;62384;53.600;10.040;2023-05-28T08:46:35;9.68;;;2.42;;
74042;SDS011;62384;53.600;10.040;2023-05-28T08:49:02;8.15;;;3.10;;
74042;SDS011;62384;53.600;10.040;2023-05-28T08:51:27;9.82;;;2.60;;
74042;SDS011;62384;53.600;10.040;2023-05-28T08:54:17;6.20;;;2.08;;
74042;SDS011;62384;53.600;10.040;2023-05-28T08:56:43;8.00;;;2.33;;
74042;SDS011;62384;53.600;10.040;2023-05-28T08:59:09;9.05;;;2.20;;
74042;SDS011;62384;53.600;10.040;2023-05-28T09:01:35;8.73;;;2.25;;
74042;SDS011;62384;53.600;10.040;2023-05-28T09:04:02;5.82;;;2.30;;
74042;SDS011;62384;53.600;10.040;2023-05-28T09:06:29;4.30;;;2.15;;
74042;SDS011;62384;53.600;10.040;2023-05-28T09:08:56;8.30;;;2.13;;
74042;SDS011;62384;53.600;10.040;2023-05-28T09:11:22;6.90;;;2.33;;
74042;SDS011;62384;53.600;10.040;2023-05-28T09:13:47;4.18;;;2.17;;
74042;SDS011;62384;53.600;10.040;2023-05-28T09:16:23;6.65;;;1.90;;
74042;SDS011;62384;53.600;10.040;2023-05-28T09:18:49;5.97;;;2.08;;
74042;SDS011;62384;53.600;10.040;2023-05-28T09:21:15;6.20;;;2.00;;
74042;SDS011;62384;53.600;10.040;2023-05-28T09:23:42;6.30;;;2.20;;
74042;SDS011;62384;53.600;10.040;2023-05-28T09:26:10;4.35;;;1.60;;
74042;SDS011;62384;53.600;10.040;2023-05-28T09:28:39;6.70;;;2.22;;
74042;SDS011;62384;53.600;10.040;2023-05-28T09:31:06;10.73;;;2.20;;
74042;SDS011;62384;53.600;10.040;2023-05-28T09:33:35;7.43;;;1.80;;
74042;SDS011;62384;53.600;10.040;2023-05-28T09:36:07;4.97;;;1.98;;
74042;SDS011;62384;53.600;10.040;2023-05-28T09:38:39;9.00;;;2.08;;
74042;SDS011;62384;53.600;10.040;2023-05-28T09:41:16;6.50;;;1.95;;
74042;SDS011;62384;53.600;10.040;2023-05-28T09:43:45;6.32;;;2.17;;
74042;SDS011;62384;53.600;10.040;2023-05-28T09:46:19;6.32;;;2.47;;
74042;SDS011;62384;53.600;10.040;2023-05-28T09:48:44;5.35;;;1.90;;
74042;SDS011;62384;53.600;10.040;2023-05-28T09:51:10;8.45;;;2.05;;
74042;SDS011;62384;53.600;10.040;2023-05-28T09:53:38;7.68;;;2.15;;
74042;SDS011;62384;53.600;10.040;2023-05-28T09:56:08;7.82;;;2.10;;
74042;SDS011;62384;53.600;10.040;2023-05-28T09:58:34;4.40;;;2.03;;
74042;SDS011;62384;53.600;10.040;2023-05-28T10:01:06;5.38;;;2.00;;
74042;SDS011;62384;53.600;10.040;2023-05-28T10:03:38;7.35;;;2.13;;
74042;SDS011;62384;53.600;10.040;2023-05-28T10:06:14;7.07;;;2.00;;
74042;SDS011;62384;53.600;10.040;2023-05-28T10:08:42;6.40;;;1.85;;
74042;SDS011;62384;53.600;10.040;2023-05-28T10:11:15;9.38;;;2.22;;
74042;SDS011;62384;53.600;10.040;2023-05-28T10:13:41;9.27;;;2.50;;
74042;SDS011;62384;53.600;10.040;2023-05-28T10:16:07;9.30;;;2.08;;
74042;SDS011;62384;53.600;10.040;2023-05-28T10:18:33;7.53;;;3.00;;
74042;SDS011;62384;53.600;10.040;2023-05-28T10:21:08;8.75;;;2.80;;
74042;SDS011;62384;53.600;10.040;2023-05-28T10:23:36;5.88;;;2.47;;
74042;SDS011;62384;53.600;10.040;2023-05-28T10:26:02;7.90;;;2.65;;
74042;SDS011;62384;53.600;10.040;2023-05-28T10:28:31;12.25;;;2.30;;
74042;SDS011;62384;53.600;10.040;2023-05-28T10:31:03;5.70;;;2.47;;
74042;SDS011;62384;53.600;10.040;2023-05-28T10:33:30;6.90;;;2.53;;
74042;SDS011;62384;53.600;10.040;2023-05-28T10:35:56;8.23;;;2.25;;
74042;SDS011;62384;53.600;10.040;2023-05-28T10:38:24;6.57;;;2.03;;
74042;SDS011;62384;53.600;10.040;2023-05-28T10:40:50;5.85;;;2.65;;
74042;SDS011;62384;53.600;10.040;2023-05-28T10:46:03;9.07;;;2.08;;
74042;SDS011;62384;53.600;10.040;2023-05-28T10:54:14;6.15;;;2.30;;
74042;SDS011;62384;53.600;10.040;2023-05-28T10:59:50;11.60;;;2.50;;
74042;SDS011;62384;53.600;10.040;2023-05-28T11:02:23;6.45;;;1.88;;
74042;SDS011;62384;53.600;10.040;2023-05-28T11:04:51;6.43;;;2.20;;
74042;SDS011;62384;53.600;10.040;2023-05-28T11:07:29;5.47;;;2.58;;
74042;SDS011;62384;53.600;10.040;2023-05-28T11:09:55;5.85;;;2.53;;
74042;SDS011;62384;53.600;10.040;2023-05-28T11:12:22;6.35;;;2.72;;
74042;SDS011;62384;53.600;10.040;2023-05-28T11:14:50;4.68;;;2.33;;
74042;SDS011;62384;53.600;10.040;2023-05-28T11:17:15;7.22;;;2.05;;
74042;SDS011;62384;53.600;10.040;2023-05-28T11:19:41;6.57;;;2.17;;
74042;SDS011;62384;53.600;10.040;2023-05-28T11:22:09;9.65;;;2.40;;
74042;SDS011;62384;53.600;10.040;2023-05-28T11:27:27;8.07;;;2.17;;
74042;SDS011;62384;53.600;10.040;2023-05-28T11:29:55;5.57;;;2.05;;
74042;SDS011;62384;53.600;10.040;2023-05-28T11:32:21;7.30;;;2.08;;
74042;SDS011;62384;53.600;10.040;2023-05-28T11:34:48;8.65;;;2.50;;
74042;SDS011;62384;53.600;10.040;2023-05-28T11:37:14;7.65;;;2.70;;
74042;SDS011;62384;53.600;10.040;2023-05-28T11:39:47;7.28;;;2.42;;
74042;SDS011;62384;53.600;10.040;2023-05-28T11:42:13;8.23;;;2.67;;
74042;SDS011;62384;53.600;10.040;2023-05-28T11:44:42;9.25;;;2.47;;
74042;SDS011;62384;53.600;10.040;2023-05-28T11:47:09;9.20;;;3.03;;
74042;SDS011;62384;53.600;10.040;2023-05-28T11:49:36;5.93;;;2.25;;
74042;SDS011;62384;53.600;10.040;2023-05-28T11:52:02;7.68;;;2.45;;
74042;SDS011;62384;53.600;10.040;2023-05-28T11:54:27;6.60;;;2.20;;
74042;SDS011;62384;53.600;10.040;2023-05-28T11:56:52;6.05;;;2.47;;
74042;SDS011;62384;53.600;10.040;2023-05-28T11:59:20;7.43;;;2.60;;
74042;SDS011;62384;53.600;10.040;2023-05-28T12:01:48;8.55;;;2.17;;
74042;SDS011;62384;53.600;10.040;2023-05-28T12:04:14;6.97;;;2.20;;
74042;SDS011;62384;53.600;10.040;2023-05-28T12:06:49;6.55;;;2.33;;
74042;SDS011;62384;53.600;10.040;2023-05-28T12:09:16;10.25;;;2.40;;
74042;SDS011;62384;53.600;10.040;2023-05-28T12:11:41;10.15;;;2.90;;
74042;SDS011;62384;53.600;10.040;2023-05-28T12:14:12;7.13;;;2.20;;
74042;SDS011;62384;53.600;10.040;2023-05-28T12:16:46;5.35;;;2.22;;
74042;SDS011;62384;53.600;10.040;2023-05-28T12:19:13;9.18;;;2.17;;
74042;SDS011;62384;53.600;10.040;2023-05-28T12:21:40;8.95;;;2.88;;
74042;SDS011;62384;53.600;10.040;2023-05-28T12:24:15;6.25;;;2.28;;
74042;SDS011;62384;53.600;10.040;2023-05-28T12:26:43;6.07;;;2.13;;
74042;SDS011;62384;53.600;10.040;2023-05-28T12:29:09;5.03;;;1.95;;
74042;SDS011;62384;53.600;10.040;2023-05-28T12:31:34;7.88;;;2.13;;
74042;SDS011;62384;53.600;10.040;2023-05-28T12:34:00;6.25;;;2.30;;
74042;SDS011;62384;53.600;10.040;2023-05-28T12:36:26;4.85;;;2.40;;
74042;SDS011;62384;53.600;10.040;2023-05-28T12:38:54;5.20;;;2.23;;
74042;SDS011;62384;53.600;10.040;2023-05-28T12:41:21;8.27;;;2.25;;
74042;SDS011;62384;53.600;10.040;2023-05-28T12:43:46;7.82;;;2.60;;
74042;SDS011;62384;53.600;10.040;2023-05-28T12:46:11;8.10;;;2.65;;
74042;SDS011;62384;53.600;10.040;2023-05-28T12:48:36;5.15;;;2.45;;
74042;SDS011;62384;53.600;10.040;2023-05-28T12:51:05;10.23;;;3.17;;
74042;SDS011;62384;53.600;10.040;2023-05-28T12:53:31;6.60;;;2.40;;
74042;SDS011;62384;53.600;10.040;2023-05-28T12:55:56;6.18;;;2.35;;
74042;SDS011;62384;53.600;10.040;2023-05-28T12:58:22;7.43;;;2.10;;
74042;SDS011;62384;53.600;10.040;2023-05-28T13:00:48;5.50;;;2.58;;
74042;SDS011;62384;53.600;10.040;2023-05-28T13:03:14;8.15;;;2.53;;
74042;SDS011;62384;53.600;10.040;2023-05-28T13:05:48;6.50;;;2.47;;
74042;SDS011;62384;53.600;10.040;2023-05-28T13:08:14;8.73;;;2.42;;
74042;SDS011;62384;53.600;10.040;2023-05-28T13:10:40;4.95;;;2.10;;
74042;SDS011;62384;53.600;10.040;2023-05-28T13:13:05;5.72;;;2.55;;
74042;SDS011;62384;53.600;10.040;2023-05-28T13:15:30;6.85;;;2.20;;
74042;SDS011;62384;53.600;10.040;2023-05-28T13:17:55;5.35;;;2.10;;
74042;SDS011;62384;53.600;10.040;2023-05-28T13:20:22;6.95;;;2.28;;
74042;SDS011;62384;53.600;10.040;2023-05-28T13:22:47;6.28;;;2.80;;
74042;SDS011;62384;53.600;10.040;2023-05-28T13:25:13;9.40;;;2.25;;
74042;SDS011;62384;53.600;10.040;2023-05-28T13:27:38;8.13;;;2.53;;
74042;SDS011;62384;53.600;10.040;2023-05-28T13:30:03;6.68;;;2.00;;
74042;SDS011;62384;53.600;10.040;2023-05-28T13:32:32;7.47;;;3.08;;
74042;SDS011;62384;53.600;10.040;2023-05-28T13:34:58;5.53;;;2.30;;
74042;SDS011;62384;53.600;10.040;2023-05-28T13:37:23;4.65;;;2.05;;
74042;SDS011;62384;53.600;10.040;2023-05-28T13:39:48;7.78;;;2.35;;
74042;SDS011;62384;53.600;10.040;2023-05-28T13:42:14;6.03;;;2.65;;
74042;SDS011;62384;53.600;10.040;2023-05-28T13:44:44;6.97;;;2.30;;
74042;SDS011;62384;53.600;10.040;2023-05-28T13:47:19;5.38;;;2.55;;
74042;SDS011;62384;53.600;10.040;2023-05-28T13:49:44;5.40;;;2.33;;
74042;SDS011;62384;53.600;10.040;2023-05-28T13:52:10;5.93;;;2.20;;
74042;SDS011;62384;53.600;10.040;2023-05-28T13:54:35;8.45;;;2.13;;
74042;SDS011;62384;53.600;10.040;2023-05-28T13:57:01;7.28;;;2.13;;
74042;SDS011;62384;53.600;10.040;2023-05-28T13:59:28;4.95;;;2.05;;
74042;SDS011;62384;53.600;10.040;2023-05-28T14:01:54;4.47;;;2.08;;
74042;SDS011;62384;53.600;10.040;2023-05-28T14:04:21;5.20;;;1.90;;
74042;SDS011;62384;53.600;10.040;2023-05-28T14:06:46;5.43;;;2.40;;
74042;SDS011;62384;53.600;10.040;2023-05-28T14:09:11;4.70;;;2.28;;
74042;SDS011;62384;53.600;10.040;2023-05-28T14:11:37;5.53;;;1.85;;
74042;SDS011;62384;53.600;10.040;2023-05-28T14:14:02;5.07;;;2.00;;
74042;SDS011;62384;53.600;10.040;2023-05-28T14:16:27;8.35;;;2.28;;
74042;SDS011;62384;53.600;10.040;2023-05-28T14:18:52;5.85;;;1.90;;
74042;SDS011;62384;53.600;10.040;2023-05-28T14:21:17;4.72;;;1.73;;
74042;SDS011;62384;53.600;10.040;2023-05-28T14:23:43;4.70;;;2.22;;
74042;SDS011;62384;53.600;10.040;2023-05-28T14:26:08;6.78;;;2.50;;
74042;SDS011;62384;53.600;10.040;2023-05-28T14:28:33;7.78;;;2.33;;
74042;SDS011;62384;53.600;10.040;2023-05-28T14:30:59;3.90;;;2.10;;
74042;SDS011;62384;53.600;10.040;2023-05-28T14:33:24;5.88;;;2.10;;
74042;SDS011;62384;53.600;10.040;2023-05-28T14:35:53;8.57;;;2.20;;
74042;SDS011;62384;53.600;10.040;2023-05-28T14:38:19;7.63;;;2.10;;